Time;durP1;ratioP1;P1;durP2;ratioP2;P2;SDS_P1;SDS_P2;PMS_P1;PMS_P2;Temp;Humidity;BMP_temperature;BMP_pressure;BME280_temperature;BME280_humidity;BME280_pressure;Samples;Min_cycle;Max_cycle;Signal;HPM_P1;HPM_P2
2022/10/06 00:00:32;;;;;;;2.60;0.50;;;13.20;99.90;;;;;;5093901;28;20048;-81
2022/10/06 00:02:58;;;;;;;2.72;0.80;;;13.20;99.90;;;;;;5097942;28;20386;-82
2022/10/06 00:05:24;;;;;;;1.85;0.60;;;13.20;99.90;;;;;;5071170;28;20590;-82
2022/10/06 00:07:49;;;;;;;2.33;0.50;;;13.10;99.90;;;;;;5104042;28;20099;-82
2022/10/06 00:10:16;;;;;;;1.13;0.40;;;13.10;99.90;;;;;;5085465;28;20050;-82
2022/10/06 00:12:48;;;;;;;2.85;0.60;;;13.10;99.90;;;;;;5081629;28;20047;-81
2022/10/06 00:15:16;;;;;;;3.95;0.50;;;13.10;99.90;;;;;;5096735;28;20105;-81
2022/10/06 00:17:42;;;;;;;4.55;0.77;;;13.00;99.90;;;;;;5093018;28;20569;-81
2022/10/06 00:20:09;;;;;;;7.95;0.98;;;12.90;99.90;;;;;;5086338;28;20048;-81
2022/10/06 00:22:37;;;;;;;2.88;0.77;;;12.90;99.90;;;;;;5082948;28;20040;-82
2022/10/06 00:25:04;;;;;;;3.10;0.80;;;12.90;99.90;;;;;;5072115;28;20044;-81
2022/10/06 00:27:35;;;;;;;4.22;0.75;;;12.80;99.90;;;;;;5093721;28;20097;-82
2022/10/06 00:30:02;;;;;;;5.10;0.80;;;12.80;99.90;;;;;;5095299;28;20060;-82
2022/10/06 00:32:28;;;;;;;3.22;0.80;;;12.70;99.90;;;;;;5080982;28;20052;-81
2022/10/06 00:34:54;;;;;;;1.42;0.93;;;12.70;99.90;;;;;;5092103;28;20054;-81
2022/10/06 00:37:19;;;;;;;2.85;0.65;;;12.70;99.90;;;;;;5081086;28;20080;-81
2022/10/06 00:39:45;;;;;;;2.28;0.82;;;12.70;99.90;;;;;;5079711;28;20107;-81
2022/10/06 00:42:26;;;;;;;2.92;0.88;;;12.70;99.90;;;;;;5090669;28;20043;-81
2022/10/06 00:44:52;;;;;;;1.60;0.65;;;12.60;99.90;;;;;;5079896;28;20109;-81
2022/10/06 00:47:21;;;;;;;5.72;0.77;;;12.60;99.90;;;;;;5079524;28;20040;-81
2022/10/06 00:49:47;;;;;;;5.82;0.73;;;12.50;99.90;;;;;;5070512;28;20045;-82
2022/10/06 00:52:20;;;;;;;3.78;0.73;;;12.50;99.90;;;;;;5095652;28;20124;-81
2022/10/06 00:54:46;;;;;;;2.58;0.55;;;12.50;99.90;;;;;;5094101;28;20058;-82
2022/10/06 00:57:12;;;;;;;6.25;1.42;;;12.50;99.90;;;;;;5065712;28;20040;-82
2022/10/06 00:59:38;;;;;;;5.90;0.98;;;12.50;99.90;;;;;;5100342;28;20047;-82
2022/10/06 01:02:26;;;;;;;6.38;0.80;;;12.60;99.90;;;;;;5080906;28;20174;-82
2022/10/06 01:04:55;;;;;;;5.00;0.77;;;12.50;99.90;;;;;;5097595;28;20406;-82
2022/10/06 01:07:26;;;;;;;6.22;0.77;;;12.50;99.90;;;;;;5081678;28;20147;-81
2022/10/06 01:09:53;;;;;;;4.20;0.95;;;12.50;99.90;;;;;;5083408;28;20035;-82
2022/10/06 01:12:20;;;;;;;4.13;0.98;;;12.40;99.90;;;;;;5078067;28;20082;-81
2022/10/06 01:14:46;;;;;;;5.85;0.93;;;12.50;99.90;;;;;;5080376;28;20048;-81
2022/10/06 01:17:20;;;;;;;5.07;0.85;;;12.40;99.90;;;;;;5097533;28;20124;-81
2022/10/06 01:20:15;;;;;;;4.95;1.27;;;12.40;99.90;;;;;;5099907;28;20028;-82
2022/10/06 01:22:44;;;;;;;6.95;0.73;;;12.40;99.90;;;;;;5105524;28;20051;-82
2022/10/06 01:25:12;;;;;;;5.57;1.17;;;12.40;99.90;;;;;;5098156;28;20052;-81
2022/10/06 01:27:41;;;;;;;5.32;1.33;;;12.40;99.90;;;;;;5094099;28;20055;-82
2022/10/06 01:30:09;;;;;;;7.68;1.15;;;12.40;99.90;;;;;;5095381;28;20068;-81
2022/10/06 01:32:37;;;;;;;5.47;0.98;;;12.40;99.90;;;;;;5108017;28;20040;-81
2022/10/06 01:35:05;;;;;;;7.75;2.00;;;12.30;99.90;;;;;;5093123;28;20052;-81
2022/10/06 01:37:31;;;;;;;2.88;0.75;;;12.30;99.90;;;;;;5091961;28;20095;-82
2022/10/06 01:39:56;;;;;;;6.47;0.95;;;12.30;99.90;;;;;;5068205;28;20078;-82
2022/10/06 01:42:22;;;;;;;7.55;1.00;;;12.20;99.90;;;;;;5063128;28;20103;-81
2022/10/06 01:44:48;;;;;;;9.10;1.08;;;12.20;99.90;;;;;;5099478;28;20036;-81
2022/10/06 01:47:13;;;;;;;5.60;1.00;;;12.20;99.90;;;;;;5064523;28;20051;-82
2022/10/06 01:49:39;;;;;;;4.45;0.90;;;12.10;99.90;;;;;;5100983;28;20042;-82
2022/10/06 01:52:05;;;;;;;6.22;1.13;;;12.10;99.90;;;;;;5079805;28;20042;-82
2022/10/06 01:54:31;;;;;;;4.18;0.80;;;12.00;99.90;;;;;;5099652;28;20079;-82
2022/10/06 01:56:57;;;;;;;4.97;2.25;;;12.00;99.90;;;;;;5080533;28;20052;-82
2022/10/06 01:59:23;;;;;;;4.28;1.02;;;12.00;99.90;;;;;;5103310;28;20591;-82
2022/10/06 02:01:50;;;;;;;6.38;1.00;;;11.90;99.90;;;;;;5099614;28;20056;-82
2022/10/06 02:04:15;;;;;;;4.82;0.80;;;11.90;99.90;;;;;;5067131;28;20040;-83
2022/10/06 02:06:41;;;;;;;9.10;1.85;;;11.80;99.90;;;;;;5099790;28;20122;-82
2022/10/06 02:09:07;;;;;;;7.10;0.80;;;11.80;99.90;;;;;;5101810;28;20074;-82
2022/10/06 02:11:34;;;;;;;8.13;1.17;;;11.80;99.90;;;;;;5105340;28;20531;-81
2022/10/06 02:14:00;;;;;;;2.72;0.85;;;11.70;99.90;;;;;;5106144;28;20146;-82
2022/10/06 02:16:27;;;;;;;8.05;1.75;;;11.80;99.90;;;;;;5068902;28;20044;-82
2022/10/06 02:18:53;;;;;;;2.97;0.82;;;11.80;99.90;;;;;;5100749;28;20123;-82
2022/10/06 02:21:21;;;;;;;6.95;1.00;;;11.70;99.90;;;;;;5104509;28;20047;-82
2022/10/06 02:23:47;;;;;;;12.43;1.33;;;11.70;99.90;;;;;;5087170;28;20131;-81
2022/10/06 02:26:16;;;;;;;5.03;1.10;;;11.70;99.90;;;;;;5064311;28;20489;-82
2022/10/06 02:28:43;;;;;;;11.35;0.90;;;11.70;99.90;;;;;;5105221;28;20489;-82
2022/10/06 02:31:09;;;;;;;9.93;1.00;;;11.60;99.90;;;;;;5088426;28;20054;-81
2022/10/06 02:33:36;;;;;;;6.88;1.05;;;11.60;99.90;;;;;;5097220;28;20055;-82
2022/10/06 02:36:04;;;;;;;5.78;1.02;;;11.60;99.90;;;;;;5084606;28;20032;-82
2022/10/06 02:38:31;;;;;;;5.55;1.10;;;11.60;99.90;;;;;;5100973;28;20044;-82
2022/10/06 02:40:58;;;;;;;5.35;0.95;;;11.60;99.90;;;;;;5107365;28;20063;-82
2022/10/06 02:43:27;;;;;;;5.43;1.00;;;11.50;99.90;;;;;;5075292;28;20056;-81
2022/10/06 02:45:59;;;;;;;6.43;1.33;;;11.60;99.90;;;;;;5086673;28;20078;-82
2022/10/06 02:48:26;;;;;;;9.10;1.43;;;11.50;99.90;;;;;;5096494;28;20449;-81
2022/10/06 02:51:06;;;;;;;10.35;1.67;;;11.50;99.90;;;;;;5083057;28;20106;-82
2022/10/06 02:53:33;;;;;;;4.90;0.95;;;11.50;99.90;;;;;;5103489;28;20051;-81
2022/10/06 02:56:04;;;;;;;11.48;2.05;;;11.50;99.90;;;;;;5093992;28;20040;-82
2022/10/06 02:58:30;;;;;;;11.40;1.75;;;11.50;99.90;;;;;;5103514;28;20076;-81
2022/10/06 03:01:17;;;;;;;7.95;1.08;;;11.40;99.90;;;;;;5097210;28;20064;-82
2022/10/06 03:03:43;;;;;;;7.03;1.02;;;11.40;99.90;;;;;;5097241;28;20044;-82
2022/10/06 03:06:20;;;;;;;7.25;1.38;;;11.40;99.90;;;;;;5100451;28;20098;-81
2022/10/06 03:08:54;;;;;;;10.93;1.42;;;11.30;99.90;;;;;;5101249;28;20078;-82
2022/10/06 03:11:23;;;;;;;3.65;0.68;;;11.30;99.90;;;;;;5101162;28;20043;-81
2022/10/06 03:13:50;;;;;;;8.43;1.70;;;11.30;99.90;;;;;;5092740;28;20043;-82
2022/10/06 03:16:23;;;;;;;10.80;1.17;;;11.30;99.90;;;;;;5086760;28;20059;-81
2022/10/06 03:18:50;;;;;;;5.15;1.48;;;11.20;99.90;;;;;;5106089;28;20125;-81
2022/10/06 03:21:17;;;;;;;7.35;0.95;;;11.20;99.90;;;;;;5104726;28;20039;-82
2022/10/06 03:23:44;;;;;;;3.95;1.10;;;11.20;99.90;;;;;;5086750;28;20040;-82
2022/10/06 03:26:10;;;;;;;8.60;1.35;;;11.10;99.90;;;;;;5099983;28;20044;-82
2022/10/06 03:28:36;;;;;;;4.40;1.15;;;11.00;99.90;;;;;;5105537;28;20051;-82
2022/10/06 03:31:05;;;;;;;8.00;1.20;;;11.00;99.90;;;;;;5081275;28;20040;-81
2022/10/06 03:33:31;;;;;;;3.97;0.70;;;11.00;99.90;;;;;;5098267;28;20072;-81
2022/10/06 03:36:15;;;;;;;7.03;1.02;;;10.90;99.90;;;;;;5098478;28;20078;-81
2022/10/06 03:38:41;;;;;;;5.85;0.77;;;10.90;99.90;;;;;;5078255;28;20089;-82
2022/10/06 03:41:19;;;;;;;8.98;0.90;;;10.90;99.90;;;;;;5098156;28;20649;-81
2022/10/06 03:43:46;;;;;;;7.10;0.85;;;10.90;99.90;;;;;;5078522;28;20115;-81
2022/10/06 03:46:14;;;;;;;5.30;0.90;;;10.80;99.90;;;;;;5097892;28;20047;-81
2022/10/06 03:48:41;;;;;;;7.45;1.00;;;10.70;99.90;;;;;;5093988;28;20128;-81
2022/10/06 03:51:34;;;;;;;4.72;0.65;;;10.70;99.90;;;;;;5097870;28;20048;-81
2022/10/06 03:54:00;;;;;;;12.93;1.77;;;10.70;99.90;;;;;;5090154;28;20085;-81
2022/10/06 03:56:32;;;;;;;7.97;1.63;;;10.70;99.90;;;;;;5104214;28;20163;-81
2022/10/06 03:59:00;;;;;;;7.43;1.67;;;10.60;99.90;;;;;;5082422;28;20048;-81
2022/10/06 04:01:41;;;;;;;5.95;1.35;;;10.60;99.90;;;;;;5101035;28;20105;-81
2022/10/06 04:04:08;;;;;;;9.63;1.17;;;10.60;99.90;;;;;;5098515;28;20067;-82
2022/10/06 04:06:40;;;;;;;7.40;1.27;;;10.60;99.90;;;;;;5080476;28;20066;-81
2022/10/06 04:09:08;;;;;;;7.55;1.05;;;10.50;99.90;;;;;;5091822;28;20032;-81
2022/10/06 04:11:36;;;;;;;6.05;1.13;;;10.50;99.90;;;;;;5075941;28;20044;-81
2022/10/06 04:14:11;;;;;;;7.40;1.67;;;10.40;99.90;;;;;;5099595;28;20115;-81
2022/10/06 04:16:43;;;;;;;5.22;1.05;;;10.40;99.90;;;;;;5100580;28;20123;-81
2022/10/06 04:19:10;;;;;;;13.57;2.08;;;10.40;99.90;;;;;;5103636;28;20037;-81
2022/10/06 04:21:37;;;;;;;13.82;2.05;;;10.40;99.90;;;;;;5092351;28;20050;-81
2022/10/06 04:24:05;;;;;;;9.10;1.60;;;10.30;99.90;;;;;;5080251;28;20055;-81
2022/10/06 04:26:35;;;;;;;10.77;1.13;;;10.30;99.90;;;;;;5093895;28;20044;-82
2022/10/06 04:29:01;;;;;;;11.80;1.50;;;10.30;99.90;;;;;;5092000;28;20048;-82
2022/10/06 04:31:33;;;;;;;6.20;1.80;;;10.30;99.90;;;;;;5095936;28;20505;-82
2022/10/06 04:33:59;;;;;;;;;;;10.30;99.90;;;;;;5075800;28;20055;-82
2022/10/06 04:36:28;;;;;;;7.93;1.00;;;10.30;99.90;;;;;;5081331;28;19924;-82
2022/10/06 04:38:57;;;;;;;9.70;1.30;;;10.30;99.90;;;;;;5079489;28;20043;-82
2022/10/06 04:41:25;;;;;;;6.00;0.73;;;10.30;99.90;;;;;;5096298;28;20044;-81
2022/10/06 04:43:52;;;;;;;9.02;1.00;;;10.30;99.90;;;;;;5086143;28;20047;-82
2022/10/06 04:46:19;;;;;;;5.38;1.13;;;10.20;99.90;;;;;;5097077;28;20104;-83
2022/10/06 04:48:46;;;;;;;12.43;1.67;;;10.20;99.90;;;;;;5075088;28;20067;-84
2022/10/06 04:51:14;;;;;;;8.48;1.58;;;10.20;99.90;;;;;;5092608;28;20041;-83
2022/10/06 04:53:40;;;;;;;10.30;1.25;;;10.10;99.90;;;;;;5100981;28;20074;-83
2022/10/06 04:56:17;;;;;;;5.38;1.17;;;10.10;99.90;;;;;;5097204;28;20036;-84
2022/10/06 04:58:48;;;;;;;7.57;1.17;;;10.20;99.90;;;;;;5087987;28;20044;-84
2022/10/06 05:01:26;;;;;;;5.97;1.23;;;10.10;99.90;;;;;;5104640;28;20079;-83
2022/10/06 05:03:54;;;;;;;6.28;1.50;;;10.10;99.90;;;;;;5097960;28;20051;-83
2022/10/06 05:06:32;;;;;;;7.65;1.05;;;10.10;99.90;;;;;;5103539;28;20040;-83
2022/10/06 05:09:04;;;;;;;3.40;1.40;;;10.10;99.90;;;;;;5093382;28;20078;-83
2022/10/06 05:11:30;;;;;;;8.65;1.45;;;10.10;99.90;;;;;;5094098;28;20036;-83
2022/10/06 05:13:57;;;;;;;9.45;1.10;;;10.00;99.90;;;;;;5078037;28;20157;-83
2022/10/06 05:16:25;;;;;;;3.47;1.35;;;10.00;99.90;;;;;;5098592;28;20047;-82
2022/10/06 05:18:51;;;;;;;3.15;0.98;;;10.10;99.90;;;;;;5076074;28;20052;-83
2022/10/06 05:21:22;;;;;;;7.57;1.80;;;10.00;99.90;;;;;;5075615;28;20063;-83
2022/10/06 05:23:48;;;;;;;6.07;1.48;;;10.00;99.90;;;;;;5098118;28;20482;-84
2022/10/06 05:26:25;;;;;;;4.00;0.98;;;10.00;99.90;;;;;;5059652;28;20044;-83
2022/10/06 05:28:51;;;;;;;10.23;1.08;;;10.00;99.90;;;;;;5098221;28;20048;-83
2022/10/06 05:31:37;;;;;;;6.05;1.27;;;10.00;99.90;;;;;;5088684;28;20127;-84
2022/10/06 05:34:03;;;;;;;7.72;1.50;;;10.00;99.90;;;;;;5092539;28;20048;-83
2022/10/06 05:36:32;;;;;;;10.05;1.30;;;10.00;99.90;;;;;;5095743;28;20107;-82
2022/10/06 05:38:59;;;;;;;8.52;1.27;;;10.00;99.90;;;;;;5076980;28;20068;-82
2022/10/06 05:41:29;;;;;;;10.13;1.52;;;9.90;99.90;;;;;;5096626;28;20032;-82
2022/10/06 05:43:57;;;;;;;7.57;1.10;;;10.00;99.90;;;;;;5102851;28;20063;-83
2022/10/06 05:46:26;;;;;;;12.70;2.40;;;10.00;99.90;;;;;;5110902;28;20511;-84
2022/10/06 05:49:18;;;;;;;6.53;1.17;;;10.00;99.90;;;;;;5104733;28;20050;-83
2022/10/06 05:51:44;;;;;;;13.00;3.10;;;10.00;99.90;;;;;;5085242;28;20675;-84
2022/10/06 05:54:13;;;;;;;5.85;1.02;;;10.00;99.90;;;;;;5113161;28;20035;-82
2022/10/06 05:56:38;;;;;;;14.07;1.38;;;10.00;99.90;;;;;;5111970;28;20073;-82
2022/10/06 05:59:05;;;;;;;8.10;1.33;;;10.00;99.90;;;;;;5099959;28;20048;-83
2022/10/06 06:01:39;;;;;;;7.55;0.90;;;10.10;99.90;;;;;;5101297;28;20052;-82
2022/10/06 06:04:07;;;;;;;7.05;0.88;;;10.00;99.90;;;;;;5099792;28;20378;-83
2022/10/06 06:06:37;;;;;;;9.02;1.65;;;10.00;99.90;;;;;;5084913;28;20028;-82
2022/10/06 06:09:09;;;;;;;12.40;1.70;;;10.00;99.90;;;;;;5086568;28;20042;-83
2022/10/06 06:11:37;;;;;;;11.38;2.55;;;10.00;99.90;;;;;;5110078;28;20603;-83
2022/10/06 06:14:08;;;;;;;10.60;1.30;;;10.10;99.90;;;;;;5107690;28;20044;-82
2022/10/06 06:16:37;;;;;;;11.88;1.55;;;10.10;99.90;;;;;;5096315;28;20059;-82
2022/10/06 06:19:03;;;;;;;10.63;1.80;;;10.10;99.90;;;;;;5087812;28;20092;-83
2022/10/06 06:21:29;;;;;;;12.60;1.75;;;10.10;99.90;;;;;;5103097;28;20047;-83
2022/10/06 06:23:55;;;;;;;5.93;1.20;;;10.10;99.90;;;;;;5103163;28;20439;-83
2022/10/06 06:26:24;;;;;;;7.75;1.60;;;10.10;99.90;;;;;;5110263;28;20065;-83
2022/10/06 06:28:51;;;;;;;5.90;1.65;;;10.20;99.90;;;;;;5094197;28;20099;-83
2022/10/06 06:31:25;;;;;;;10.25;2.72;;;10.20;99.90;;;;;;5078032;28;20040;-83
2022/10/06 06:33:54;;;;;;;8.93;1.60;;;10.30;99.90;;;;;;5104451;28;20044;-82
2022/10/06 06:36:28;;;;;;;8.25;1.17;;;10.30;99.90;;;;;;5101399;28;20059;-83
2022/10/06 06:38:57;;;;;;;9.40;1.27;;;10.30;99.90;;;;;;5093137;28;20137;-82
2022/10/06 06:41:29;;;;;;;5.28;1.35;;;10.40;99.90;;;;;;5095217;28;20125;-83
2022/10/06 06:43:56;;;;;;;6.38;1.20;;;10.40;99.90;;;;;;5108922;28;20048;-83
2022/10/06 06:46:25;;;;;;;8.00;1.13;;;10.40;99.90;;;;;;5099215;28;20085;-83
2022/10/06 06:48:52;;;;;;;9.40;1.35;;;10.50;99.90;;;;;;5095484;28;20035;-83
2022/10/06 06:51:22;;;;;;;7.20;1.23;;;10.60;99.90;;;;;;5106840;28;20040;-83
2022/10/06 06:53:49;;;;;;;7.95;1.20;;;10.60;99.90;;;;;;5110504;28;20040;-83
2022/10/06 06:56:14;;;;;;;13.07;1.40;;;10.60;99.90;;;;;;5104055;28;20039;-83
2022/10/06 06:58:46;;;;;;;5.95;1.13;;;10.70;99.90;;;;;;5085055;28;20071;-82
2022/10/06 07:01:15;;;;;;;8.55;1.10;;;10.70;99.90;;;;;;5109083;28;20054;-81
2022/10/06 07:03:42;;;;;;;9.52;1.35;;;10.80;99.90;;;;;;5110951;28;20158;-82
2022/10/06 07:06:15;;;;;;;5.10;1.55;;;10.90;99.90;;;;;;5090925;28;20055;-81
2022/10/06 07:08:46;;;;;;;9.60;1.55;;;10.90;99.90;;;;;;5086315;28;20036;-82
2022/10/06 07:11:12;;;;;;;7.68;2.30;;;11.00;99.90;;;;;;5113396;28;20193;-81
2022/10/06 07:13:38;;;;;;;7.68;1.15;;;11.00;99.90;;;;;;5105142;28;20040;-82
2022/10/06 07:27:05;;;;;;;8.23;1.17;;;11.40;99.90;;;;;;5102824;28;20044;-81
2022/10/06 07:29:31;;;;;;;7.70;1.63;;;11.40;99.90;;;;;;5087364;28;20040;-81
2022/10/06 07:31:57;;;;;;;4.18;1.40;;;11.50;99.90;;;;;;5094118;28;20053;-82
2022/10/06 07:34:22;;;;;;;10.70;1.40;;;11.60;99.90;;;;;;5070988;28;20044;-82
2022/10/06 07:36:51;;;;;;;8.70;1.30;;;11.60;99.90;;;;;;5095301;28;20044;-82
2022/10/06 07:39:16;;;;;;;6.95;1.38;;;11.70;99.90;;;;;;5100460;28;20091;-82
2022/10/06 07:41:42;;;;;;;10.68;1.30;;;11.70;99.90;;;;;;5092666;28;20500;-82
2022/10/06 07:44:07;;;;;;;12.15;1.30;;;11.80;99.90;;;;;;5096326;28;20485;-83
2022/10/06 07:46:33;;;;;;;13.55;1.73;;;11.80;99.90;;;;;;5104147;28;20044;-82
2022/10/06 07:48:59;;;;;;;10.32;1.50;;;11.90;99.90;;;;;;5103879;28;20051;-83
2022/10/06 07:51:26;;;;;;;9.73;2.20;;;11.90;99.90;;;;;;5090534;28;20044;-82
2022/10/06 07:53:52;;;;;;;7.30;1.40;;;11.90;99.90;;;;;;5110985;28;20129;-83
2022/10/06 07:56:19;;;;;;;12.27;1.42;;;12.00;99.90;;;;;;5102844;28;21495;-82
2022/10/06 07:58:46;;;;;;;8.55;1.10;;;12.10;99.90;;;;;;5108431;28;20044;-82
2022/10/06 08:01:14;;;;;;;8.55;1.27;;;12.10;99.90;;;;;;5086395;28;20044;-82
2022/10/06 08:03:41;;;;;;;7.20;1.40;;;12.20;99.90;;;;;;5092360;28;20087;-82
2022/10/06 08:06:14;;;;;;;10.38;1.60;;;12.20;99.90;;;;;;5094042;28;20078;-82
2022/10/06 08:08:41;;;;;;;14.30;3.10;;;12.30;99.90;;;;;;5102680;28;20061;-82
2022/10/06 08:11:08;;;;;;;6.80;0.90;;;12.40;99.90;;;;;;5110457;28;20425;-82
2022/10/06 08:13:36;;;;;;;4.65;1.60;;;12.40;99.90;;;;;;5087785;28;20056;-81
2022/10/06 08:16:13;;;;;;;5.25;1.30;;;12.50;99.90;;;;;;5086488;28;20036;-82
2022/10/06 08:18:39;;;;;;;3.55;0.80;;;12.60;99.90;;;;;;5100222;28;20051;-82
2022/10/06 08:21:29;;;;;;;7.20;1.20;;;12.60;99.90;;;;;;5104543;28;20048;-82
2022/10/06 08:23:57;;;;;;;13.90;2.45;;;12.70;99.90;;;;;;5100103;28;20115;-83
2022/10/06 08:26:25;;;;;;;5.72;1.35;;;12.80;99.90;;;;;;5111718;28;20063;-83
2022/10/06 08:28:53;;;;;;;8.30;0.95;;;12.80;99.90;;;;;;5101624;28;20069;-82
2022/10/06 08:31:20;;;;;;;9.15;1.13;;;12.90;99.90;;;;;;5078689;28;20043;-83
2022/10/06 08:33:47;;;;;;;7.10;1.08;;;13.00;99.90;;;;;;5104297;28;20167;-82
2022/10/06 08:36:18;;;;;;;11.88;1.73;;;13.10;99.90;;;;;;5086511;28;20069;-82
2022/10/06 08:38:48;;;;;;;6.07;1.23;;;13.30;99.90;;;;;;5099123;28;20510;-82
2022/10/06 08:41:38;;;;;;;6.53;2.05;;;13.40;99.90;;;;;;5088153;28;20100;-83
2022/10/06 08:44:21;;;;;;;6.30;1.27;;;13.40;99.90;;;;;;5102366;28;20047;-82
2022/10/06 08:46:54;;;;;;;;;;;13.50;99.90;;;;;;5081075;28;20108;-82
2022/10/06 08:49:23;;;;;;;7.97;1.60;;;13.50;99.90;;;;;;5101040;28;19923;-83
2022/10/06 08:52:26;;;;;;;16.52;1.95;;;13.60;99.90;;;;;;5112928;28;20070;-82
2022/10/06 08:55:01;;;;;;;9.18;1.60;;;13.60;99.90;;;;;;5100730;28;20107;-82
2022/10/06 08:57:49;;;;;;;7.75;1.30;;;13.70;99.90;;;;;;5086958;28;20100;-82
2022/10/06 09:00:16;;;;;;;5.95;0.90;;;13.80;99.90;;;;;;5102761;28;20058;-82
2022/10/06 09:02:46;;;;;;;14.43;1.42;;;13.90;99.90;;;;;;5106675;28;20055;-82
2022/10/06 09:05:24;;;;;;;8.43;1.40;;;14.00;99.90;;;;;;5088171;28;20051;-83
2022/10/06 09:08:15;;;;;;;11.10;1.70;;;14.10;99.90;;;;;;5109177;28;20046;-84
2022/10/06 09:11:08;;;;;;;10.65;1.40;;;14.20;99.90;;;;;;5083961;28;20134;-82
2022/10/06 09:13:37;;;;;;;5.40;1.63;;;14.30;99.90;;;;;;5085329;28;20086;-82
2022/10/06 09:16:06;;;;;;;10.57;1.35;;;14.40;99.90;;;;;;5107979;28;20089;-83
2022/10/06 09:18:44;;;;;;;8.52;1.60;;;14.50;99.90;;;;;;5085936;28;20058;-83
2022/10/06 09:21:16;;;;;;;10.25;1.73;;;14.60;99.90;;;;;;5101092;28;20105;-82
2022/10/06 09:23:52;;;;;;;5.57;1.13;;;14.70;99.90;;;;;;5089963;28;20090;-83
2022/10/06 09:26:30;;;;;;;9.50;1.83;;;14.80;99.90;;;;;;5113070;28;20100;-82
2022/10/06 09:28:57;;;;;;;4.97;1.65;;;15.00;99.90;;;;;;5092089;28;20056;-82
2022/10/06 09:31:28;;;;;;;12.55;1.20;;;15.30;99.90;;;;;;5093984;28;20052;-82
2022/10/06 09:34:05;;;;;;;14.10;1.38;;;15.90;99.90;;;;;;5085533;28;20116;-83
2022/10/06 09:36:31;;;;;;;5.32;1.20;;;16.70;99.90;;;;;;5106621;28;20044;-83
2022/10/06 09:38:58;;;;;;;12.35;1.50;;;17.40;99.90;;;;;;5108917;28;20107;-83
2022/10/06 09:41:39;;;;;;;6.07;1.50;;;17.80;99.90;;;;;;5107577;28;20055;-83
2022/10/06 09:44:20;;;;;;;13.63;1.92;;;18.00;99.90;;;;;;5088602;28;20052;-83
2022/10/06 09:46:46;;;;;;;6.57;1.30;;;18.20;99.90;;;;;;5104357;28;20082;-82
2022/10/06 09:49:18;;;;;;;8.55;1.58;;;18.30;99.90;;;;;;5087083;28;20501;-83
2022/10/06 09:52:01;;;;;;;6.53;1.25;;;18.50;99.90;;;;;;5103453;28;20063;-82
2022/10/06 09:54:28;;;;;;;11.88;1.30;;;18.60;99.90;;;;;;5097142;28;20044;-83
2022/10/06 09:56:57;;;;;;;10.60;1.25;;;18.70;99.90;;;;;;5089921;28;20039;-83
2022/10/06 09:59:39;;;;;;;7.80;1.27;;;18.40;99.90;;;;;;5113354;28;20050;-83
2022/10/06 10:02:35;;;;;;;8.18;2.00;;;17.70;99.90;;;;;;5102896;28;20053;-83
2022/10/06 10:05:02;;;;;;;7.32;1.45;;;17.10;99.90;;;;;;5100257;28;20109;-83
2022/10/06 10:07:33;;;;;;;6.85;1.23;;;16.70;99.90;;;;;;5107829;28;20043;-82
2022/10/06 10:10:28;;;;;;;9.20;1.27;;;16.40;99.90;;;;;;5097361;28;20081;-83
2022/10/06 10:12:56;;;;;;;9.18;1.67;;;16.10;99.90;;;;;;5094840;28;20048;-83
2022/10/06 10:15:33;;;;;;;5.05;1.25;;;16.00;99.90;;;;;;5118443;28;20035;-82
2022/10/06 10:18:04;;;;;;;9.75;1.63;;;16.00;99.90;;;;;;5112279;28;20046;-82
2022/10/06 10:20:38;;;;;;;3.30;1.13;;;16.20;99.90;;;;;;5111566;28;20083;-82
2022/10/06 10:23:16;;;;;;;6.47;1.20;;;16.40;99.90;;;;;;5107255;28;20102;-82
2022/10/06 10:25:46;;;;;;;7.30;1.42;;;16.60;99.90;;;;;;5107285;28;20123;-82
2022/10/06 10:28:50;;;;;;;5.47;1.13;;;16.80;99.90;;;;;;5107450;28;20137;-83
2022/10/06 10:31:24;;;;;;;6.88;1.10;;;17.10;99.90;;;;;;5107736;28;20097;-82
2022/10/06 10:34:11;;;;;;;8.45;1.52;;;17.20;99.90;;;;;;5101410;28;20075;-84
2022/10/06 10:36:44;;;;;;;6.80;1.23;;;17.20;99.90;;;;;;5089217;28;20101;-83
2022/10/06 10:39:17;;;;;;;4.40;1.25;;;17.30;99.90;;;;;;5091897;28;20068;-83
2022/10/06 10:41:51;;;;;;;12.25;2.33;;;17.40;99.90;;;;;;5105109;28;20064;-83
2022/10/06 10:44:30;;;;;;;7.47;1.40;;;17.40;99.90;;;;;;5099419;28;20040;-83
2022/10/06 10:47:26;;;;;;;8.18;1.33;;;17.40;99.90;;;;;;5087373;28;20051;-83
2022/10/06 10:49:59;;;;;;;7.05;1.27;;;17.40;99.90;;;;;;5115100;28;20054;-83
2022/10/06 10:52:30;;;;;;;4.65;1.35;;;17.30;99.90;;;;;;5087471;28;20101;-83
2022/10/06 10:55:13;;;;;;;7.13;1.27;;;17.10;99.90;;;;;;5082313;28;20060;-84
2022/10/06 10:57:42;;;;;;;6.20;1.08;;;17.00;99.90;;;;;;5120710;28;20178;-84
2022/10/06 11:00:20;;;;;;;8.27;1.50;;;17.10;99.90;;;;;;5119508;28;20104;-83
2022/10/06 11:02:46;;;;;;;4.72;1.15;;;17.20;99.90;;;;;;5079732;28;20047;-87
2022/10/06 11:05:29;;;;;;;4.60;1.60;;;17.30;99.90;;;;;;5092026;28;20036;-88
2022/10/06 11:08:11;;;;;;;9.68;1.05;;;17.40;99.90;;;;;;5093556;28;20081;-88
2022/10/06 11:10:45;;;;;;;4.85;1.08;;;17.50;99.90;;;;;;5098198;28;20035;-86
2022/10/06 11:13:41;;;;;;;6.45;1.02;;;17.40;99.90;;;;;;5089428;28;20143;-89
2022/10/06 11:16:30;;;;;;;9.68;1.38;;;17.10;99.90;;;;;;5080652;28;20035;-88
2022/10/06 11:19:28;;;;;;;7.85;1.23;;;16.80;99.90;;;;;;5101899;28;20125;-90
2022/10/06 11:22:04;;;;;;;12.77;2.10;;;16.60;99.90;;;;;;5110418;27;20063;-90
2022/10/06 11:25:01;;;;;;;8.27;1.25;;;16.60;99.90;;;;;;5080842;28;20035;-89
2022/10/06 11:27:52;;;;;;;6.40;1.17;;;16.70;99.90;;;;;;5099756;28;20040;-90
2022/10/06 11:30:25;;;;;;;5.75;1.00;;;16.70;99.90;;;;;;5091290;28;20040;-89
2022/10/06 11:33:02;;;;;;;5.63;1.38;;;16.60;99.90;;;;;;5108061;28;20071;-84
2022/10/06 11:35:40;;;;;;;3.50;0.80;;;16.60;99.90;;;;;;5084190;28;20050;-84
2022/10/06 11:38:31;;;;;;;7.05;1.30;;;16.70;99.90;;;;;;5100947;28;20039;-85
2022/10/06 11:41:24;;;;;;;5.65;0.88;;;17.00;99.90;;;;;;5091651;28;20052;-84
2022/10/06 11:44:09;;;;;;;6.82;1.20;;;17.20;99.90;;;;;;5075696;28;20068;-84
2022/10/06 11:46:42;;;;;;;7.45;1.50;;;17.30;99.90;;;;;;5097047;28;20121;-85
2022/10/06 11:49:27;;;;;;;4.75;0.95;;;17.40;99.90;;;;;;5114362;28;20055;-85
2022/10/06 11:51:53;;;;;;;6.68;1.30;;;17.40;99.90;;;;;;5081254;28;20051;-85
2022/10/06 11:54:38;;;;;;;9.20;1.02;;;17.50;99.90;;;;;;5080449;28;20061;-85
2022/10/06 11:57:22;;;;;;;6.50;1.25;;;17.60;99.90;;;;;;5085582;28;20198;-85
2022/10/06 11:59:54;;;;;;;4.90;0.90;;;17.70;99.90;;;;;;5086090;28;20043;-85
2022/10/06 12:02:29;;;;;;;3.83;0.70;;;17.70;99.90;;;;;;5102620;28;20097;-85
2022/10/06 12:05:31;;;;;;;8.50;1.70;;;17.80;99.90;;;;;;5097913;28;20055;-84
2022/10/06 12:07:57;;;;;;;3.38;0.70;;;17.90;99.90;;;;;;5087865;28;20288;-85
2022/10/06 12:10:26;;;;;;;3.63;1.00;;;17.90;99.90;;;;;;5081109;28;20044;-84
2022/10/06 12:12:53;;;;;;;3.70;0.50;;;17.90;99.90;;;;;;5077277;28;20604;-84
2022/10/06 12:15:41;;;;;;;5.75;0.80;;;17.80;99.90;;;;;;5062142;28;20078;-85
2022/10/06 12:18:26;;;;;;;4.07;0.98;;;17.60;99.90;;;;;;5098769;28;20473;-86
2022/10/06 12:21:44;;;;;;;6.68;1.10;;;17.50;99.90;;;;;;5103756;28;20103;-84
2022/10/06 12:24:40;;;;;;;5.50;0.98;;;17.50;99.90;;;;;;5080592;28;20075;-85
2022/10/06 12:27:18;;;;;;;6.50;1.30;;;17.40;99.90;;;;;;5106723;28;20052;-85
2022/10/06 12:29:58;;;;;;;5.50;1.52;;;17.40;99.90;;;;;;5080720;28;20098;-84
2022/10/06 12:32:39;;;;;;;2.70;0.77;;;17.60;99.90;;;;;;5068327;28;20048;-84
2022/10/06 12:35:04;;;;;;;5.05;1.02;;;17.80;99.90;;;;;;5061412;28;20560;-83
2022/10/06 12:37:36;;;;;;;2.83;1.00;;;18.00;99.90;;;;;;5094252;28;20107;-85
2022/10/06 12:40:39;;;;;;;6.22;0.80;;;18.00;99.90;;;;;;5102460;28;20473;-84
2022/10/06 12:43:18;;;;;;;4.05;0.80;;;18.10;99.90;;;;;;5100559;28;20061;-85
2022/10/06 12:46:15;;;;;;;4.57;1.10;;;18.00;99.90;;;;;;5118899;28;20422;-85
2022/10/06 12:49:05;;;;;;;6.55;0.73;;;17.90;99.80;;;;;;5117222;28;20118;-84
2022/10/06 12:51:43;;;;;;;2.63;0.77;;;17.90;99.90;;;;;;5117641;28;20044;-85
2022/10/06 12:54:29;;;;;;;5.10;0.90;;;18.00;99.90;;;;;;5119994;28;20382;-85
2022/10/06 12:57:00;;;;;;;7.53;1.70;;;18.10;99.90;;;;;;5123213;28;20077;-84
2022/10/06 12:59:30;;;;;;;5.25;0.70;;;18.30;99.90;;;;;;5101449;28;20168;-84
2022/10/06 13:02:18;;;;;;;6.57;0.90;;;18.40;99.90;;;;;;5102574;28;20056;-85
2022/10/06 13:04:48;;;;;;;5.85;0.80;;;18.50;99.50;;;;;;5101720;28;20118;-84
2022/10/06 13:07:19;;;;;;;4.82;0.95;;;18.40;99.90;;;;;;5102262;28;20047;-85
2022/10/06 13:09:48;;;;;;;2.08;0.55;;;18.40;99.90;;;;;;5085937;28;20052;-84
2022/10/06 13:12:26;;;;;;;5.82;1.48;;;18.40;99.90;;;;;;5080689;28;20064;-85
2022/10/06 13:15:13;;;;;;;8.18;1.13;;;18.40;99.90;;;;;;5065405;28;20056;-85
2022/10/06 13:17:43;;;;;;;6.20;0.90;;;18.40;99.90;;;;;;5081258;28;20052;-85
2022/10/06 13:20:42;;;;;;;3.75;0.80;;;18.40;99.90;;;;;;5111662;28;20046;-85
2022/10/06 13:23:08;;;;;;;4.78;1.20;;;18.20;98.20;;;;;;5111764;28;20138;-85